createdAt,value
2018-12-29T00:01:11.298Z,8.27
2018-12-29T00:03:40.644Z,8.28
2018-12-29T00:06:10.012Z,8.28
2018-12-29T00:08:39.391Z,8.30
2018-12-29T00:11:08.758Z,8.30
2018-12-29T00:13:38.088Z,8.30
2018-12-29T00:16:07.445Z,8.31
2018-12-29T00:18:36.810Z,8.32
2018-12-29T00:21:06.184Z,8.32
2018-12-29T00:23:35.548Z,8.33
2018-12-29T00:26:04.923Z,8.34
2018-12-29T00:28:34.332Z,8.35
2018-12-29T00:31:03.671Z,8.36
2018-12-29T00:33:33.035Z,8.37
2018-12-29T00:36:02.398Z,8.37
2018-12-29T00:38:31.737Z,8.38
2018-12-29T00:41:01.106Z,8.40
2018-12-29T00:43:30.479Z,8.40
2018-12-29T00:45:59.825Z,8.41
2018-12-29T00:48:29.986Z,8.41
2018-12-29T00:50:59.390Z,8.42
2018-12-29T00:53:28.773Z,8.42
2018-12-29T00:55:58.106Z,8.42
2018-12-29T00:58:27.473Z,8.43
2018-12-29T01:00:56.829Z,8.43
2018-12-29T01:03:26.167Z,8.44
2018-12-29T01:05:55.538Z,8.45
2018-12-29T01:08:24.901Z,8.45
2018-12-29T01:10:54.265Z,8.45
2018-12-29T01:13:23.601Z,8.45
2018-12-29T01:15:53.073Z,8.46
2018-12-29T01:18:22.453Z,8.46
2018-12-29T01:20:51.789Z,8.46
2018-12-29T01:23:21.171Z,8.46
2018-12-29T01:25:50.555Z,8.46
2018-12-29T01:28:20.597Z,8.47
2018-12-29T01:30:49.928Z,8.47
2018-12-29T01:33:19.307Z,8.48
2018-12-29T01:35:48.658Z,8.49
2018-12-29T01:38:18.048Z,8.50
2018-12-29T01:40:47.390Z,8.51
2018-12-29T01:43:16.769Z,8.51
2018-12-29T01:45:46.149Z,8.51
2018-12-29T01:48:15.550Z,8.52
2018-12-29T01:50:44.898Z,8.53
2018-12-29T01:53:14.266Z,8.53
2018-12-29T01:55:43.619Z,8.54
2018-12-29T01:58:13.007Z,8.56
2018-12-29T02:00:42.382Z,8.56
2018-12-29T02:03:11.752Z,8.56
2018-12-29T02:05:41.134Z,8.58
2018-12-29T02:08:10.509Z,8.58
2018-12-29T02:10:39.894Z,8.60
2018-12-29T02:13:09.258Z,8.60
2018-12-29T02:15:38.607Z,8.59
2018-12-29T02:18:07.988Z,8.61
2018-12-29T02:20:37.345Z,8.61
2018-12-29T02:23:06.683Z,8.61
2018-12-29T02:25:36.059Z,8.60
2018-12-29T02:28:05.416Z,8.61
2018-12-29T02:30:34.768Z,8.60
2018-12-29T02:33:04.119Z,8.60
2018-12-29T02:35:33.490Z,8.59
2018-12-29T02:38:02.846Z,8.59
2018-12-29T02:40:32.217Z,8.59
2018-12-29T02:43:01.604Z,8.58
2018-12-29T02:45:33.425Z,8.59
2018-12-29T02:48:02.062Z,8.59
2018-12-29T02:50:31.411Z,8.57
2018-12-29T02:53:01.158Z,8.58
2018-12-29T02:55:30.500Z,8.59
2018-12-29T02:57:59.894Z,8.58
2018-12-29T03:00:29.232Z,8.58
2018-12-29T03:02:58.596Z,8.57
2018-12-29T03:05:27.963Z,8.57
2018-12-29T03:07:57.355Z,8.57
2018-12-29T03:10:26.710Z,8.57
2018-12-29T03:12:56.169Z,8.57
2018-12-29T03:15:25.501Z,8.57
2018-12-29T03:17:54.840Z,8.57
2018-12-29T03:20:24.239Z,8.58
2018-12-29T03:22:53.584Z,8.59
2018-12-29T03:25:22.945Z,8.59
2018-12-29T03:27:52.294Z,8.60
2018-12-29T03:30:21.675Z,8.60
2018-12-29T03:32:51.047Z,8.60
2018-12-29T03:35:20.398Z,8.62
2018-12-29T03:37:49.825Z,8.61
2018-12-29T03:40:19.175Z,8.62
2018-12-29T03:42:48.501Z,8.63
2018-12-29T03:45:17.861Z,8.65
2018-12-29T03:47:47.214Z,8.64
2018-12-29T03:50:16.585Z,8.65
2018-12-29T03:52:45.931Z,8.65
2018-12-29T03:55:15.303Z,8.66
2018-12-29T03:57:44.671Z,8.67
2018-12-29T04:00:14.034Z,8.67
2018-12-29T04:02:43.394Z,8.68
2018-12-29T04:05:12.745Z,8.69
2018-12-29T04:07:42.107Z,8.70
2018-12-29T04:10:15.353Z,8.71
2018-12-29T04:13:04.323Z,8.72
2018-12-29T04:15:33.764Z,8.73
2018-12-29T04:18:03.107Z,8.74
2018-12-29T04:20:32.458Z,8.75
2018-12-29T04:23:01.840Z,8.76
2018-12-29T04:25:31.210Z,8.77
2018-12-29T04:28:00.566Z,8.78
2018-12-29T04:30:29.917Z,8.78
2018-12-29T04:32:59.282Z,8.80
2018-12-29T04:35:28.606Z,8.85
2018-12-29T04:37:57.982Z,8.94
2018-12-29T04:40:27.342Z,9.01
2018-12-29T04:42:56.723Z,9.01
2018-12-29T04:45:26.086Z,9.05
2018-12-29T04:47:55.426Z,9.09
2018-12-29T04:50:24.807Z,9.09
2018-12-29T04:52:54.145Z,9.14
2018-12-29T04:55:23.513Z,9.17
2018-12-29T04:57:52.846Z,9.20
2018-12-29T05:00:22.197Z,9.24
2018-12-29T05:02:51.578Z,9.21
2018-12-29T05:05:20.909Z,9.23
2018-12-29T05:07:50.272Z,9.23
2018-12-29T05:10:19.625Z,9.24
2018-12-29T05:12:48.988Z,9.25
2018-12-29T05:15:18.331Z,9.27
2018-12-29T05:17:48.324Z,9.27
2018-12-29T05:20:17.701Z,9.30
2018-12-29T05:22:47.082Z,9.29
2018-12-29T05:25:16.421Z,9.34
2018-12-29T05:27:45.784Z,9.41
2018-12-29T05:30:15.092Z,9.40
2018-12-29T05:32:44.463Z,9.43
2018-12-29T05:35:15.261Z,9.50
2018-12-29T05:37:44.664Z,9.48
2018-12-29T05:40:14.028Z,9.52
2018-12-29T05:42:43.369Z,9.55
2018-12-29T05:45:12.764Z,9.63
2018-12-29T05:47:42.104Z,9.68
2018-12-29T05:50:11.471Z,9.74
2018-12-29T05:52:40.830Z,9.71
2018-12-29T05:55:10.171Z,9.70
2018-12-29T05:57:39.550Z,9.70
2018-12-29T06:00:08.994Z,9.78
2018-12-29T06:02:38.340Z,9.73
2018-12-29T06:05:07.678Z,9.73
2018-12-29T06:07:37.019Z,9.74
2018-12-29T06:10:06.382Z,9.79
2018-12-29T06:12:35.739Z,9.77
2018-12-29T06:15:05.209Z,9.79
2018-12-29T06:17:34.580Z,9.83
2018-12-29T06:20:03.984Z,9.85
2018-12-29T06:22:33.355Z,9.88
2018-12-29T06:25:02.831Z,9.87
2018-12-29T06:27:32.187Z,9.88
2018-12-29T06:30:01.573Z,9.88
2018-12-29T06:32:30.930Z,9.90
2018-12-29T06:35:00.299Z,9.90
2018-12-29T06:37:29.679Z,9.92
2018-12-29T06:39:59.023Z,9.94
2018-12-29T06:42:28.399Z,10.00
2018-12-29T06:44:57.745Z,9.96
2018-12-29T06:47:27.118Z,10.03
2018-12-29T06:49:57.007Z,10.03
2018-12-29T06:52:26.329Z,10.02
2018-12-29T06:54:55.669Z,10.06
2018-12-29T06:57:25.043Z,10.12
2018-12-29T06:59:54.384Z,10.13
2018-12-29T07:02:24.801Z,10.09
2018-12-29T07:04:54.179Z,10.10
2018-12-29T07:07:23.522Z,10.10
2018-12-29T07:09:52.937Z,10.14
2018-12-29T07:12:22.344Z,10.14
2018-12-29T07:14:51.690Z,10.11
2018-12-29T07:17:21.056Z,10.10
2018-12-29T07:19:50.438Z,10.09
2018-12-29T07:22:19.775Z,10.12
2018-12-29T07:24:49.140Z,10.11
2018-12-29T07:27:18.511Z,10.10
2018-12-29T07:29:47.850Z,10.09
2018-12-29T07:32:19.261Z,10.09
2018-12-29T07:34:48.589Z,10.14
2018-12-29T07:37:17.962Z,10.14
2018-12-29T07:39:47.302Z,10.09
2018-12-29T07:42:16.667Z,10.15
2018-12-29T07:44:46.036Z,10.14
2018-12-29T07:47:15.378Z,10.16
2018-12-29T07:49:44.738Z,10.16
2018-12-29T07:52:14.094Z,10.15
2018-12-29T07:54:43.457Z,10.14
2018-12-29T07:57:30.565Z,10.13
2018-12-29T07:59:59.939Z,10.13
2018-12-29T08:02:29.278Z,10.15
2018-12-29T08:04:58.641Z,10.14
2018-12-29T08:07:27.986Z,10.14
2018-12-29T08:09:57.361Z,10.14
2018-12-29T08:12:26.758Z,10.18
2018-12-29T08:14:56.095Z,10.16
2018-12-29T08:17:25.457Z,10.24
2018-12-29T08:19:55.024Z,10.20
2018-12-29T08:22:24.374Z,10.21
2018-12-29T08:24:53.814Z,10.22
2018-12-29T08:27:25.491Z,10.22
2018-12-29T08:29:54.847Z,10.21
2018-12-29T08:32:24.222Z,10.21
2018-12-29T08:34:53.564Z,10.24
2018-12-29T08:37:22.953Z,10.22
2018-12-29T08:39:52.294Z,10.23
2018-12-29T08:42:21.669Z,10.22
2018-12-29T08:44:51.023Z,10.23
2018-12-29T08:47:20.445Z,10.25
2018-12-29T08:49:49.793Z,10.24
2018-12-29T08:52:19.147Z,10.28
2018-12-29T08:54:48.537Z,10.28
2018-12-29T08:57:17.883Z,10.27
2018-12-29T08:59:47.275Z,10.31
2018-12-29T09:02:16.613Z,10.31
2018-12-29T09:04:47.054Z,10.32
2018-12-29T09:07:16.461Z,10.34
2018-12-29T09:09:45.830Z,10.37
2018-12-29T09:12:15.196Z,10.35
2018-12-29T09:14:44.587Z,10.36
2018-12-29T09:17:13.963Z,10.37
2018-12-29T09:19:43.358Z,10.38
2018-12-29T09:22:12.702Z,10.43
2018-12-29T09:24:42.165Z,10.45
2018-12-29T09:27:11.548Z,10.45
2018-12-29T09:29:40.930Z,10.49
2018-12-29T09:32:14.727Z,10.51
2018-12-29T09:34:44.111Z,10.52
2018-12-29T09:37:13.510Z,10.53
2018-12-29T09:39:42.878Z,10.55
2018-12-29T09:42:12.213Z,10.56
2018-12-29T09:44:41.567Z,10.56
2018-12-29T09:47:10.951Z,10.56
2018-12-29T09:49:40.329Z,10.55
2018-12-29T09:52:09.711Z,10.57
2018-12-29T09:54:39.088Z,10.59
2018-12-29T09:57:08.503Z,10.59
2018-12-29T09:59:37.859Z,10.59
2018-12-29T10:02:07.247Z,10.59
2018-12-29T10:04:36.602Z,10.59
2018-12-29T10:07:05.979Z,10.63
2018-12-29T10:09:35.325Z,10.64
2018-12-29T10:12:04.722Z,10.62
2018-12-29T10:14:34.094Z,10.63
2018-12-29T10:17:03.435Z,10.64
2018-12-29T10:19:32.827Z,10.67
2018-12-29T10:22:02.218Z,10.67
2018-12-29T10:24:31.589Z,10.66
2018-12-29T10:27:00.984Z,10.67
2018-12-29T10:29:30.361Z,10.71
2018-12-29T10:31:59.730Z,10.72
2018-12-29T10:34:29.118Z,10.72
2018-12-29T10:36:58.467Z,10.73
2018-12-29T10:39:27.830Z,10.74
2018-12-29T10:41:57.174Z,10.73
2018-12-29T10:44:26.649Z,10.75
2018-12-29T10:46:55.991Z,10.75
2018-12-29T10:49:25.385Z,10.76
2018-12-29T10:51:54.737Z,10.78
2018-12-29T10:54:24.124Z,10.76
2018-12-29T10:56:53.508Z,10.78
2018-12-29T10:59:22.867Z,10.78
2018-12-29T11:01:52.249Z,10.79
2018-12-29T11:04:21.746Z,10.79
2018-12-29T11:06:51.152Z,10.80
2018-12-29T11:09:20.572Z,10.81
2018-12-29T11:11:49.984Z,10.81
2018-12-29T11:14:19.347Z,10.82
2018-12-29T11:16:49.968Z,10.83
2018-12-29T11:19:19.364Z,10.84
2018-12-29T11:21:48.753Z,10.84
2018-12-29T11:24:18.148Z,10.87
2018-12-29T11:26:47.526Z,10.86
2018-12-29T11:29:16.873Z,10.87
2018-12-29T11:31:46.256Z,10.89
2018-12-29T11:34:15.596Z,10.89
2018-12-29T11:36:44.967Z,10.88
2018-12-29T11:39:14.334Z,10.89
2018-12-29T11:41:43.738Z,10.91
2018-12-29T11:44:13.107Z,10.91
2018-12-29T11:46:42.522Z,10.92
2018-12-29T11:49:17.968Z,10.91
2018-12-29T11:51:42.950Z,10.93
2018-12-29T11:54:12.331Z,10.92
2018-12-29T11:56:41.705Z,10.94
2018-12-29T11:59:11.269Z,10.95
2018-12-29T12:01:40.656Z,10.96
2018-12-29T12:04:10.053Z,10.96
2018-12-29T12:06:39.407Z,10.97
2018-12-29T12:09:08.894Z,10.97
2018-12-29T12:11:38.285Z,10.97
2018-12-29T12:14:07.679Z,10.97
2018-12-29T12:16:37.058Z,10.96
2018-12-29T12:19:06.478Z,10.97
2018-12-29T12:21:36.230Z,10.96
2018-12-29T12:24:05.605Z,10.96
2018-12-29T12:26:34.993Z,10.96
2018-12-29T12:29:04.354Z,10.97
2018-12-29T12:31:34.021Z,10.95
2018-12-29T12:34:03.400Z,10.96
2018-12-29T12:36:33.024Z,10.96
2018-12-29T12:39:02.374Z,10.94
2018-12-29T12:41:32.053Z,10.94
2018-12-29T12:44:01.567Z,10.93
2018-12-29T12:46:30.948Z,10.92
2018-12-29T12:49:00.694Z,10.93
2018-12-29T12:51:30.062Z,10.92
2018-12-29T12:53:59.425Z,10.91
2018-12-29T12:56:28.831Z,10.91
2018-12-29T12:58:58.195Z,10.89
2018-12-29T13:01:27.865Z,10.89
2018-12-29T13:03:57.225Z,10.89
2018-12-29T13:06:26.601Z,10.88
2018-12-29T13:08:56.122Z,10.88
2018-12-29T13:11:25.859Z,10.87
2018-12-29T13:13:55.285Z,10.87
2018-12-29T13:16:24.712Z,10.87
2018-12-29T13:18:54.086Z,10.87
2018-12-29T13:21:23.494Z,10.88
2018-12-29T13:23:53.124Z,10.88
2018-12-29T13:26:22.518Z,10.87
2018-12-29T13:28:53.674Z,10.87
2018-12-29T13:31:23.183Z,10.88
2018-12-29T13:33:52.524Z,10.89
2018-12-29T13:36:21.900Z,10.88
2018-12-29T13:38:51.303Z,10.88
2018-12-29T13:41:20.661Z,10.89
2018-12-29T13:43:50.058Z,10.89
2018-12-29T13:46:19.796Z,10.88
2018-12-29T13:48:49.186Z,10.88
2018-12-29T13:51:18.559Z,10.89
2018-12-29T13:53:47.925Z,10.88
2018-12-29T13:56:17.271Z,10.88
2018-12-29T13:58:46.640Z,10.88
2018-12-29T14:01:16.117Z,10.88
2018-12-29T14:03:45.482Z,10.88
2018-12-29T14:06:14.860Z,10.88
2018-12-29T14:08:44.198Z,10.88
2018-12-29T14:11:13.612Z,10.88
2018-12-29T14:13:42.967Z,10.88
2018-12-29T14:16:12.382Z,10.88
2018-12-29T14:18:41.789Z,10.87
2018-12-29T14:21:11.419Z,10.87
2018-12-29T14:23:40.815Z,10.86
2018-12-29T14:26:10.173Z,10.86
2018-12-29T14:28:39.558Z,10.86
2018-12-29T14:31:08.988Z,10.85
2018-12-29T14:33:38.423Z,10.85
2018-12-29T14:36:07.834Z,10.84
2018-12-29T14:38:37.208Z,10.83
2018-12-29T14:41:06.613Z,10.83
2018-12-29T14:43:35.960Z,10.82
2018-12-29T14:46:05.332Z,10.82
2018-12-29T14:48:36.081Z,10.82
2018-12-29T14:51:05.566Z,10.82
2018-12-29T14:53:34.966Z,10.82
2018-12-29T14:56:04.311Z,10.82
2018-12-29T14:58:33.727Z,10.80
2018-12-29T15:01:03.093Z,10.80
2018-12-29T15:03:32.489Z,10.80
2018-12-29T15:06:01.891Z,10.80
2018-12-29T15:08:31.269Z,10.80
2018-12-29T15:11:00.621Z,10.78
2018-12-29T15:13:30.387Z,10.76
2018-12-29T15:15:59.822Z,10.77
2018-12-29T15:18:29.355Z,10.75
2018-12-29T15:20:58.988Z,10.73
2018-12-29T15:23:28.355Z,10.73
2018-12-29T15:25:57.737Z,10.72
2018-12-29T15:28:27.111Z,10.70
2018-12-29T15:30:56.479Z,10.69
2018-12-29T15:33:25.842Z,10.68
2018-12-29T15:35:55.337Z,10.67
2018-12-29T15:38:24.723Z,10.66
2018-12-29T15:40:54.350Z,10.65
2018-12-29T15:43:23.707Z,10.66
2018-12-29T15:45:53.104Z,10.66
2018-12-29T15:48:22.735Z,10.65
2018-12-29T15:50:52.182Z,10.65
2018-12-29T15:53:21.573Z,10.64
2018-12-29T15:55:50.945Z,10.64
2018-12-29T15:58:20.562Z,10.63
2018-12-29T16:00:50.046Z,10.62
2018-12-29T16:03:19.404Z,10.62
2018-12-29T16:05:48.942Z,10.60
2018-12-29T16:08:19.358Z,10.60
2018-12-29T16:10:48.740Z,10.60
2018-12-29T16:13:18.089Z,10.60
2018-12-29T16:15:47.492Z,10.60
2018-12-29T16:18:16.895Z,10.59
2018-12-29T16:20:53.109Z,10.59
2018-12-29T16:23:17.360Z,10.57
2018-12-29T16:25:46.927Z,10.58
2018-12-29T16:28:16.295Z,10.57
2018-12-29T16:30:45.679Z,10.56
2018-12-29T16:33:15.135Z,10.56
2018-12-29T16:35:44.804Z,10.56
2018-12-29T16:38:14.442Z,10.56
2018-12-29T16:40:43.870Z,10.57
2018-12-29T16:43:13.298Z,10.58
2018-12-29T16:45:42.657Z,10.58
2018-12-29T16:48:12.186Z,10.58
2018-12-29T16:50:41.563Z,10.55
2018-12-29T16:53:10.995Z,10.54
2018-12-29T16:55:40.409Z,10.53
2018-12-29T16:58:09.845Z,10.51
2018-12-29T17:00:39.182Z,10.51
2018-12-29T17:03:08.555Z,10.51
2018-12-29T17:05:37.922Z,10.49
2018-12-29T17:08:07.313Z,10.49
2018-12-29T17:10:37.693Z,10.49
2018-12-29T17:13:07.058Z,10.47
2018-12-29T17:15:36.468Z,10.47
2018-12-29T17:18:06.296Z,10.47
2018-12-29T17:20:35.672Z,10.47
2018-12-29T17:23:05.056Z,10.47
2018-12-29T17:25:34.706Z,10.47
2018-12-29T17:28:04.095Z,10.48
2018-12-29T17:30:33.521Z,10.48
2018-12-29T17:33:02.887Z,10.48
2018-12-29T17:35:32.558Z,10.48
2018-12-29T17:38:01.930Z,10.48
2018-12-29T17:40:31.299Z,10.49
2018-12-29T17:43:00.727Z,10.48
2018-12-29T17:45:30.072Z,10.48
2018-12-29T17:47:59.510Z,10.47
2018-12-29T17:50:29.170Z,10.47
2018-12-29T17:52:58.551Z,10.47
2018-12-29T17:55:27.932Z,10.47
2018-12-29T17:57:59.842Z,10.47
2018-12-29T18:00:30.280Z,10.45
2018-12-29T18:03:00.639Z,10.46
2018-12-29T18:05:30.100Z,10.44
2018-12-29T18:07:59.517Z,10.45
2018-12-29T18:10:29.186Z,10.43
2018-12-29T18:12:58.887Z,10.43
2018-12-29T18:15:28.276Z,10.42
2018-12-29T18:17:57.721Z,10.41
2018-12-29T18:20:27.111Z,10.41
2018-12-29T18:22:56.505Z,10.40
2018-12-29T18:25:25.862Z,10.41
2018-12-29T18:27:55.310Z,10.40
2018-12-29T18:30:24.677Z,10.39
2018-12-29T18:32:54.077Z,10.39
2018-12-29T18:35:23.483Z,10.40
2018-12-29T18:37:52.916Z,10.39
2018-12-29T18:40:22.317Z,10.39
2018-12-29T18:42:52.121Z,10.39
2018-12-29T18:45:21.559Z,10.38
2018-12-29T18:47:50.914Z,10.38
2018-12-29T18:50:20.337Z,10.38
2018-12-29T18:52:49.755Z,10.37
2018-12-29T18:55:19.194Z,10.37
2018-12-29T18:57:48.767Z,10.36
2018-12-29T19:00:18.180Z,10.37
2018-12-29T19:02:47.563Z,10.36
2018-12-29T19:05:16.942Z,10.34
2018-12-29T19:07:46.336Z,10.34
2018-12-29T19:10:15.748Z,10.33
2018-12-29T19:12:46.147Z,10.32
2018-12-29T19:15:15.547Z,10.32
2018-12-29T19:17:45.327Z,10.32
2018-12-29T19:20:15.178Z,10.32
2018-12-29T19:22:44.581Z,10.33
2018-12-29T19:25:13.995Z,10.32
2018-12-29T19:27:43.420Z,10.31
2018-12-29T19:30:12.874Z,10.31
2018-12-29T19:32:42.279Z,10.32
2018-12-29T19:35:12.018Z,10.31
2018-12-29T19:37:41.365Z,10.29
2018-12-29T19:40:10.736Z,10.27
2018-12-29T19:42:40.272Z,10.28
2018-12-29T19:45:09.681Z,10.28
2018-12-29T19:47:39.057Z,10.28
2018-12-29T19:50:08.837Z,10.27
2018-12-29T19:52:38.267Z,10.27
2018-12-29T19:55:07.718Z,10.28
2018-12-29T19:57:37.226Z,10.27
2018-12-29T20:00:08.325Z,10.28
2018-12-29T20:02:38.081Z,10.27
2018-12-29T20:05:07.854Z,10.27
2018-12-29T20:07:37.308Z,10.26
2018-12-29T20:10:07.132Z,10.26
2018-12-29T20:12:36.610Z,10.25
2018-12-29T20:15:09.009Z,10.25
2018-12-29T20:17:38.729Z,10.25
2018-12-29T20:20:08.178Z,10.23
2018-12-29T20:22:37.550Z,10.24
2018-12-29T20:25:07.273Z,10.23
2018-12-29T20:27:36.635Z,10.24
2018-12-29T20:30:06.959Z,10.23
2018-12-29T20:32:36.424Z,10.23
2018-12-29T20:35:05.848Z,10.23
2018-12-29T20:37:35.253Z,10.24
2018-12-29T20:40:04.848Z,10.22
2018-12-29T20:42:34.307Z,10.22
2018-12-29T20:45:04.043Z,10.21
2018-12-29T20:47:33.434Z,10.21
2018-12-29T20:50:09.560Z,10.21
2018-12-29T20:52:33.991Z,10.19
2018-12-29T20:55:04.151Z,10.19
2018-12-29T20:57:33.534Z,10.19
2018-12-29T21:00:02.918Z,10.19
2018-12-29T21:02:32.333Z,10.20
2018-12-29T21:05:01.689Z,10.19
2018-12-29T21:07:31.219Z,10.19
2018-12-29T21:10:00.686Z,10.19
2018-12-29T21:12:30.407Z,10.19
2018-12-29T21:14:59.913Z,10.19
2018-12-29T21:17:29.395Z,10.19
2018-12-29T21:19:59.051Z,10.21
2018-12-29T21:22:28.668Z,10.22
2018-12-29T21:24:58.120Z,10.21
2018-12-29T21:27:27.536Z,10.23
2018-12-29T21:29:56.959Z,10.23
2018-12-29T21:32:26.798Z,10.21
2018-12-29T21:34:57.241Z,10.23
2018-12-29T21:37:26.932Z,10.23
2018-12-29T21:39:56.408Z,10.23
2018-12-29T21:42:25.893Z,10.23
2018-12-29T21:44:55.374Z,10.23
2018-12-29T21:47:24.868Z,10.24
2018-12-29T21:49:54.266Z,10.25
2018-12-29T21:52:23.728Z,10.23
2018-12-29T21:54:53.201Z,10.23
2018-12-29T21:57:22.620Z,10.23
2018-12-29T21:59:51.963Z,10.22
2018-12-29T22:02:21.345Z,10.22
2018-12-29T22:04:50.719Z,10.22
2018-12-29T22:07:20.217Z,10.22
2018-12-29T22:09:49.581Z,10.22
2018-12-29T22:12:18.961Z,10.23
2018-12-29T22:14:48.352Z,10.23
2018-12-29T22:17:17.704Z,10.22
2018-12-29T22:19:47.065Z,10.22
2018-12-29T22:22:16.432Z,10.22
2018-12-29T22:24:46.105Z,10.23
2018-12-29T22:27:15.447Z,10.21
2018-12-29T22:29:44.799Z,10.22
2018-12-29T22:32:14.163Z,10.22
2018-12-29T22:34:43.522Z,10.23
2018-12-29T22:37:13.275Z,10.23
2018-12-29T22:39:42.656Z,10.23
2018-12-29T22:42:11.994Z,10.21
2018-12-29T22:44:41.397Z,10.21
2018-12-29T22:47:10.750Z,10.22
2018-12-29T22:49:40.394Z,10.22
2018-12-29T22:52:09.737Z,10.22
2018-12-29T22:54:39.116Z,10.21
2018-12-29T22:57:08.477Z,10.21
2018-12-29T22:59:37.898Z,10.20
2018-12-29T23:02:07.502Z,10.19
2018-12-29T23:04:36.849Z,10.19
2018-12-29T23:07:06.602Z,10.19
2018-12-29T23:09:35.947Z,10.19
2018-12-29T23:12:06.476Z,10.18
2018-12-29T23:14:50.995Z,10.18
2018-12-29T23:17:20.344Z,10.17
2018-12-29T23:19:49.729Z,10.16
2018-12-29T23:22:19.077Z,10.16
2018-12-29T23:24:49.219Z,10.17
2018-12-29T23:27:18.586Z,10.17
2018-12-29T23:29:47.958Z,10.16
2018-12-29T23:32:17.390Z,10.17
2018-12-29T23:34:46.761Z,10.16
2018-12-29T23:37:16.141Z,10.16
2018-12-29T23:39:45.485Z,10.15
2018-12-29T23:42:14.842Z,10.15
2018-12-29T23:44:44.232Z,10.15
2018-12-29T23:47:13.582Z,10.15
2018-12-29T23:49:42.950Z,10.14
2018-12-29T23:52:12.606Z,10.14
2018-12-29T23:54:44.076Z,10.14
2018-12-29T23:57:13.596Z,10.15
2018-12-29T23:59:42.975Z,10.14
